sensor_id;sensor_type;location;lat;lon;timestamp;P1;durP1;ratioP1;P2;durP2;ratioP2
65764;SDS011;52915;53.718;19.946;2022-08-19T00:02:22;28.40;;;18.10;;
65764;SDS011;52915;53.718;19.946;2022-08-19T00:07:27;45.50;;;19.50;;
65764;SDS011;52915;53.718;19.946;2022-08-19T00:12:32;40.70;;;17.30;;
65764;SDS011;52915;53.718;19.946;2022-08-19T00:17:43;32.50;;;19.00;;
65764;SDS011;52915;53.718;19.946;2022-08-19T00:22:48;26.80;;;18.00;;
65764;SDS011;52915;53.718;19.946;2022-08-19T00:27:52;29.50;;;17.80;;
65764;SDS011;52915;53.718;19.946;2022-08-19T00:32:57;27.80;;;17.40;;
65764;SDS011;52915;53.718;19.946;2022-08-19T00:38:02;26.80;;;16.10;;
65764;SDS011;52915;53.718;19.946;2022-08-19T00:43:10;24.00;;;16.60;;
65764;SDS011;52915;53.718;19.946;2022-08-19T00:48:17;23.50;;;16.70;;
65764;SDS011;52915;53.718;19.946;2022-08-19T00:53:27;32.00;;;18.40;;
65764;SDS011;52915;53.718;19.946;2022-08-19T00:58:34;26.50;;;17.80;;
65764;SDS011;52915;53.718;19.946;2022-08-19T01:03:39;29.20;;;17.60;;
65764;SDS011;52915;53.718;19.946;2022-08-19T01:09:02;29.50;;;19.20;;
65764;SDS011;52915;53.718;19.946;2022-08-19T01:14:07;38.80;;;20.30;;
65764;SDS011;52915;53.718;19.946;2022-08-19T01:19:21;39.60;;;20.40;;
65764;SDS011;52915;53.718;19.946;2022-08-19T01:24:46;29.90;;;19.10;;
65764;SDS011;52915;53.718;19.946;2022-08-19T01:29:52;39.80;;;20.20;;
65764;SDS011;52915;53.718;19.946;2022-08-19T01:34:56;36.70;;;21.30;;
65764;SDS011;52915;53.718;19.946;2022-08-19T01:40:04;37.30;;;22.20;;
65764;SDS011;52915;53.718;19.946;2022-08-19T01:45:11;32.20;;;21.00;;
65764;SDS011;52915;53.718;19.946;2022-08-19T01:50:16;41.00;;;21.60;;
65764;SDS011;52915;53.718;19.946;2022-08-19T01:55:23;39.30;;;23.10;;
65764;SDS011;52915;53.718;19.946;2022-08-19T02:00:29;36.70;;;22.00;;
65764;SDS011;52915;53.718;19.946;2022-08-19T02:05:35;38.10;;;21.30;;
65764;SDS011;52915;53.718;19.946;2022-08-19T02:10:42;34.50;;;21.80;;
65764;SDS011;52915;53.718;19.946;2022-08-19T02:15:47;37.80;;;22.30;;
65764;SDS011;52915;53.718;19.946;2022-08-19T02:20:52;34.10;;;21.50;;
65764;SDS011;52915;53.718;19.946;2022-08-19T02:25:56;40.20;;;22.90;;
65764;SDS011;52915;53.718;19.946;2022-08-19T02:31:01;39.10;;;22.40;;
65764;SDS011;52915;53.718;19.946;2022-08-19T02:36:08;34.10;;;21.80;;
65764;SDS011;52915;53.718;19.946;2022-08-19T02:41:15;48.40;;;23.30;;
65764;SDS011;52915;53.718;19.946;2022-08-19T02:46:26;36.10;;;23.80;;
65764;SDS011;52915;53.718;19.946;2022-08-19T02:51:38;43.70;;;23.70;;
65764;SDS011;52915;53.718;19.946;2022-08-19T02:56:44;41.20;;;23.10;;
65764;SDS011;52915;53.718;19.946;2022-08-19T03:01:50;39.70;;;21.60;;
65764;SDS011;52915;53.718;19.946;2022-08-19T03:06:54;31.40;;;22.20;;
65764;SDS011;52915;53.718;19.946;2022-08-19T03:12:05;41.30;;;24.30;;
65764;SDS011;52915;53.718;19.946;2022-08-19T03:17:10;39.90;;;24.50;;
65764;SDS011;52915;53.718;19.946;2022-08-19T03:22:14;38.30;;;24.70;;
65764;SDS011;52915;53.718;19.946;2022-08-19T03:27:19;33.70;;;23.30;;
65764;SDS011;52915;53.718;19.946;2022-08-19T03:32:23;37.50;;;21.70;;
65764;SDS011;52915;53.718;19.946;2022-08-19T03:37:44;35.60;;;22.60;;
65764;SDS011;52915;53.718;19.946;2022-08-19T03:42:48;37.60;;;23.90;;
65764;SDS011;52915;53.718;19.946;2022-08-19T03:47:53;41.60;;;23.60;;
65764;SDS011;52915;53.718;19.946;2022-08-19T03:52:58;51.50;;;26.80;;
65764;SDS011;52915;53.718;19.946;2022-08-19T03:58:03;45.80;;;23.70;;
65764;SDS011;52915;53.718;19.946;2022-08-19T04:03:08;36.50;;;24.50;;
65764;SDS011;52915;53.718;19.946;2022-08-19T04:08:13;40.70;;;22.30;;
65764;SDS011;52915;53.718;19.946;2022-08-19T04:13:24;44.20;;;23.90;;
65764;SDS011;52915;53.718;19.946;2022-08-19T04:18:32;39.40;;;23.10;;
65764;SDS011;52915;53.718;19.946;2022-08-19T04:23:38;41.80;;;23.20;;
65764;SDS011;52915;53.718;19.946;2022-08-19T04:28:48;37.90;;;23.80;;
65764;SDS011;52915;53.718;19.946;2022-08-19T04:33:59;33.80;;;24.40;;
65764;SDS011;52915;53.718;19.946;2022-08-19T04:39:09;40.50;;;24.30;;
65764;SDS011;52915;53.718;19.946;2022-08-19T04:44:16;39.80;;;24.90;;
65764;SDS011;52915;53.718;19.946;2022-08-19T04:49:22;43.90;;;24.50;;
65764;SDS011;52915;53.718;19.946;2022-08-19T04:54:27;53.10;;;25.10;;
65764;SDS011;52915;53.718;19.946;2022-08-19T04:59:41;34.20;;;21.70;;
65764;SDS011;52915;53.718;19.946;2022-08-19T05:04:45;48.80;;;21.80;;
65764;SDS011;52915;53.718;19.946;2022-08-19T05:09:49;42.30;;;23.00;;
65764;SDS011;52915;53.718;19.946;2022-08-19T05:15:02;44.00;;;20.30;;
65764;SDS011;52915;53.718;19.946;2022-08-19T05:20:09;32.50;;;18.80;;
65764;SDS011;52915;53.718;19.946;2022-08-19T05:25:32;36.30;;;21.90;;
65764;SDS011;52915;53.718;19.946;2022-08-19T05:30:36;43.30;;;20.60;;
65764;SDS011;52915;53.718;19.946;2022-08-19T05:35:50;32.50;;;19.20;;
65764;SDS011;52915;53.718;19.946;2022-08-19T05:40:54;28.90;;;19.00;;
65764;SDS011;52915;53.718;19.946;2022-08-19T05:45:58;37.40;;;20.00;;
65764;SDS011;52915;53.718;19.946;2022-08-19T05:51:05;36.30;;;16.80;;
65764;SDS011;52915;53.718;19.946;2022-08-19T05:56:13;36.50;;;18.90;;
65764;SDS011;52915;53.718;19.946;2022-08-19T06:01:19;34.40;;;18.00;;
65764;SDS011;52915;53.718;19.946;2022-08-19T06:06:24;16.80;;;12.90;;
65764;SDS011;52915;53.718;19.946;2022-08-19T06:11:39;28.40;;;17.30;;
65764;SDS011;52915;53.718;19.946;2022-08-19T06:16:47;34.50;;;17.30;;
65764;SDS011;52915;53.718;19.946;2022-08-19T06:21:52;41.80;;;18.70;;
65764;SDS011;52915;53.718;19.946;2022-08-19T06:26:57;33.90;;;16.30;;
65764;SDS011;52915;53.718;19.946;2022-08-19T06:32:04;40.40;;;19.30;;
65764;SDS011;52915;53.718;19.946;2022-08-19T06:37:09;31.10;;;15.90;;
65764;SDS011;52915;53.718;19.946;2022-08-19T06:42:15;44.60;;;18.30;;
65764;SDS011;52915;53.718;19.946;2022-08-19T06:47:26;30.60;;;16.00;;
65764;SDS011;52915;53.718;19.946;2022-08-19T06:52:34;33.50;;;18.60;;
65764;SDS011;52915;53.718;19.946;2022-08-19T06:57:40;28.70;;;15.40;;
65764;SDS011;52915;53.718;19.946;2022-08-19T07:02:45;32.00;;;15.40;;
65764;SDS011;52915;53.718;19.946;2022-08-19T07:07:59;26.90;;;13.30;;
65764;SDS011;52915;53.718;19.946;2022-08-19T07:13:07;25.00;;;14.20;;
65764;SDS011;52915;53.718;19.946;2022-08-19T07:18:12;24.90;;;15.00;;
65764;SDS011;52915;53.718;19.946;2022-08-19T07:23:16;29.00;;;14.70;;
65764;SDS011;52915;53.718;19.946;2022-08-19T07:28:20;23.50;;;12.20;;
65764;SDS011;52915;53.718;19.946;2022-08-19T07:33:29;36.80;;;13.90;;
65764;SDS011;52915;53.718;19.946;2022-08-19T07:38:36;18.70;;;10.50;;
65764;SDS011;52915;53.718;19.946;2022-08-19T07:43:42;32.60;;;13.20;;
65764;SDS011;52915;53.718;19.946;2022-08-19T07:48:49;24.30;;;12.70;;
65764;SDS011;52915;53.718;19.946;2022-08-19T07:53:55;24.60;;;13.40;;
65764;SDS011;52915;53.718;19.946;2022-08-19T07:58:59;20.30;;;10.60;;
65764;SDS011;52915;53.718;19.946;2022-08-19T08:04:04;26.60;;;9.70;;
65764;SDS011;52915;53.718;19.946;2022-08-19T08:09:32;20.70;;;11.00;;
65764;SDS011;52915;53.718;19.946;2022-08-19T08:14:45;22.70;;;10.30;;
65764;SDS011;52915;53.718;19.946;2022-08-19T08:19:58;30.20;;;10.60;;
65764;SDS011;52915;53.718;19.946;2022-08-19T08:25:09;33.20;;;11.20;;
65764;SDS011;52915;53.718;19.946;2022-08-19T08:30:23;23.40;;;10.10;;
65764;SDS011;52915;53.718;19.946;2022-08-19T08:35:34;19.20;;;9.50;;
65764;SDS011;52915;53.718;19.946;2022-08-19T08:40:45;24.50;;;10.80;;
65764;SDS011;52915;53.718;19.946;2022-08-19T08:45:59;23.70;;;10.00;;
65764;SDS011;52915;53.718;19.946;2022-08-19T08:51:14;20.90;;;10.40;;
65764;SDS011;52915;53.718;19.946;2022-08-19T08:56:53;24.70;;;9.60;;
65764;SDS011;52915;53.718;19.946;2022-08-19T09:01:59;20.80;;;9.00;;
65764;SDS011;52915;53.718;19.946;2022-08-19T09:12:51;18.20;;;8.20;;
65764;SDS011;52915;53.718;19.946;2022-08-19T09:18:01;20.30;;;8.00;;
65764;SDS011;52915;53.718;19.946;2022-08-19T09:23:09;28.60;;;9.20;;
65764;SDS011;52915;53.718;19.946;2022-08-19T09:28:14;24.10;;;8.60;;
65764;SDS011;52915;53.718;19.946;2022-08-19T09:33:29;22.90;;;9.20;;
65764;SDS011;52915;53.718;19.946;2022-08-19T09:38:36;15.20;;;7.80;;
65764;SDS011;52915;53.718;19.946;2022-08-19T09:43:49;23.70;;;8.80;;
65764;SDS011;52915;53.718;19.946;2022-08-19T09:49:00;13.10;;;7.80;;
65764;SDS011;52915;53.718;19.946;2022-08-19T09:54:09;21.50;;;8.40;;
65764;SDS011;52915;53.718;19.946;2022-08-19T09:59:13;19.10;;;8.00;;
65764;SDS011;52915;53.718;19.946;2022-08-19T10:04:18;14.60;;;7.60;;
65764;SDS011;52915;53.718;19.946;2022-08-19T10:09:27;21.80;;;7.20;;
65764;SDS011;52915;53.718;19.946;2022-08-19T10:14:37;13.50;;;6.90;;
65764;SDS011;52915;53.718;19.946;2022-08-19T10:19:42;17.20;;;7.00;;
65764;SDS011;52915;53.718;19.946;2022-08-19T10:24:58;13.80;;;6.60;;
65764;SDS011;52915;53.718;19.946;2022-08-19T10:30:03;21.10;;;6.90;;
65764;SDS011;52915;53.718;19.946;2022-08-19T10:35:13;13.20;;;7.50;;
65764;SDS011;52915;53.718;19.946;2022-08-19T10:40:25;12.00;;;6.10;;
65764;SDS011;52915;53.718;19.946;2022-08-19T10:45:30;12.00;;;5.80;;
65764;SDS011;52915;53.718;19.946;2022-08-19T10:50:36;22.40;;;7.70;;
65764;SDS011;52915;53.718;19.946;2022-08-19T10:55:59;14.40;;;7.00;;
65764;SDS011;52915;53.718;19.946;2022-08-19T11:01:22;13.30;;;6.20;;
65764;SDS011;52915;53.718;19.946;2022-08-19T11:06:27;19.30;;;7.30;;
65764;SDS011;52915;53.718;19.946;2022-08-19T11:11:31;20.20;;;6.80;;
65764;SDS011;52915;53.718;19.946;2022-08-19T11:16:42;12.40;;;6.40;;
65764;SDS011;52915;53.718;19.946;2022-08-19T11:21:48;14.40;;;6.30;;
65764;SDS011;52915;53.718;19.946;2022-08-19T11:26:54;17.60;;;5.90;;
65764;SDS011;52915;53.718;19.946;2022-08-19T11:32:08;23.90;;;7.10;;
65764;SDS011;52915;53.718;19.946;2022-08-19T11:37:14;15.90;;;5.20;;
65764;SDS011;52915;53.718;19.946;2022-08-19T11:42:19;13.30;;;5.70;;
65764;SDS011;52915;53.718;19.946;2022-08-19T11:47:42;17.10;;;5.90;;
65764;SDS011;52915;53.718;19.946;2022-08-19T11:52:47;7.20;;;4.90;;
65764;SDS011;52915;53.718;19.946;2022-08-19T11:57:53;8.70;;;5.60;;
65764;SDS011;52915;53.718;19.946;2022-08-19T12:02:57;11.00;;;5.80;;
65764;SDS011;52915;53.718;19.946;2022-08-19T12:08:02;7.60;;;5.20;;
65764;SDS011;52915;53.718;19.946;2022-08-19T12:13:06;15.30;;;6.30;;
65764;SDS011;52915;53.718;19.946;2022-08-19T12:18:11;17.30;;;6.80;;
65764;SDS011;52915;53.718;19.946;2022-08-19T12:23:17;10.80;;;6.90;;
65764;SDS011;52915;53.718;19.946;2022-08-19T12:28:25;13.70;;;5.80;;
65764;SDS011;52915;53.718;19.946;2022-08-19T12:33:30;7.30;;;4.30;;
65764;SDS011;52915;53.718;19.946;2022-08-19T12:38:40;10.40;;;5.00;;
65764;SDS011;52915;53.718;19.946;2022-08-19T12:43:47;9.00;;;6.20;;
65764;SDS011;52915;53.718;19.946;2022-08-19T12:48:53;15.50;;;6.40;;
65764;SDS011;52915;53.718;19.946;2022-08-19T12:53:58;11.30;;;5.40;;
65764;SDS011;52915;53.718;19.946;2022-08-19T12:59:04;19.60;;;6.60;;
65764;SDS011;52915;53.718;19.946;2022-08-19T13:04:08;13.10;;;5.80;;
65764;SDS011;52915;53.718;19.946;2022-08-19T13:09:13;32.40;;;6.80;;
65764;SDS011;52915;53.718;19.946;2022-08-19T13:14:18;23.70;;;6.40;;
65764;SDS011;52915;53.718;19.946;2022-08-19T13:19:22;11.30;;;6.00;;
65764;SDS011;52915;53.718;19.946;2022-08-19T13:24:28;11.60;;;5.70;;
65764;SDS011;52915;53.718;19.946;2022-08-19T13:29:40;11.00;;;6.10;;
65764;SDS011;52915;53.718;19.946;2022-08-19T13:35:05;9.00;;;5.40;;
65764;SDS011;52915;53.718;19.946;2022-08-19T13:40:22;17.50;;;5.60;;
65764;SDS011;52915;53.718;19.946;2022-08-19T13:45:33;12.90;;;4.40;;
65764;SDS011;52915;53.718;19.946;2022-08-19T13:50:44;8.30;;;5.20;;
65764;SDS011;52915;53.718;19.946;2022-08-19T13:55:54;13.40;;;4.80;;
65764;SDS011;52915;53.718;19.946;2022-08-19T14:00:58;15.10;;;5.10;;
65764;SDS011;52915;53.718;19.946;2022-08-19T14:06:04;15.70;;;4.70;;
65764;SDS011;52915;53.718;19.946;2022-08-19T14:11:09;11.50;;;5.10;;
65764;SDS011;52915;53.718;19.946;2022-08-19T14:16:14;6.80;;;4.80;;
65764;SDS011;52915;53.718;19.946;2022-08-19T14:21:21;12.70;;;5.10;;
65764;SDS011;52915;53.718;19.946;2022-08-19T14:26:27;7.80;;;4.10;;
65764;SDS011;52915;53.718;19.946;2022-08-19T14:31:35;9.20;;;4.10;;
65764;SDS011;52915;53.718;19.946;2022-08-19T14:36:40;7.10;;;4.40;;
65764;SDS011;52915;53.718;19.946;2022-08-19T14:41:45;5.30;;;4.30;;
65764;SDS011;52915;53.718;19.946;2022-08-19T14:46:49;7.20;;;4.70;;
65764;SDS011;52915;53.718;19.946;2022-08-19T14:51:56;9.40;;;3.40;;
65764;SDS011;52915;53.718;19.946;2022-08-19T14:57:01;9.40;;;4.60;;
65764;SDS011;52915;53.718;19.946;2022-08-19T15:02:06;11.90;;;4.40;;
65764;SDS011;52915;53.718;19.946;2022-08-19T15:07:30;6.50;;;4.20;;
65764;SDS011;52915;53.718;19.946;2022-08-19T15:12:40;16.40;;;4.30;;
65764;SDS011;52915;53.718;19.946;2022-08-19T15:17:51;7.20;;;3.80;;
65764;SDS011;52915;53.718;19.946;2022-08-19T15:22:56;9.40;;;4.90;;
65764;SDS011;52915;53.718;19.946;2022-08-19T15:28:02;7.80;;;4.30;;
65764;SDS011;52915;53.718;19.946;2022-08-19T15:33:07;8.30;;;4.00;;
65764;SDS011;52915;53.718;19.946;2022-08-19T15:38:12;12.10;;;4.80;;
65764;SDS011;52915;53.718;19.946;2022-08-19T15:43:18;14.00;;;4.40;;
65764;SDS011;52915;53.718;19.946;2022-08-19T15:48:26;13.30;;;4.00;;
65764;SDS011;52915;53.718;19.946;2022-08-19T15:54:04;5.10;;;4.10;;
65764;SDS011;52915;53.718;19.946;2022-08-19T15:59:10;9.50;;;5.10;;
65764;SDS011;52915;53.718;19.946;2022-08-19T16:04:34;8.60;;;5.30;;
65764;SDS011;52915;53.718;19.946;2022-08-19T16:09:57;10.20;;;4.90;;
65764;SDS011;52915;53.718;19.946;2022-08-19T16:15:23;12.80;;;4.50;;
65764;SDS011;52915;53.718;19.946;2022-08-19T16:20:31;18.50;;;4.90;;
65764;SDS011;52915;53.718;19.946;2022-08-19T16:25:37;9.30;;;5.50;;
65764;SDS011;52915;53.718;19.946;2022-08-19T16:30:42;12.30;;;5.00;;
65764;SDS011;52915;53.718;19.946;2022-08-19T16:35:56;12.10;;;5.30;;
65764;SDS011;52915;53.718;19.946;2022-08-19T16:41:09;9.90;;;6.00;;
65764;SDS011;52915;53.718;19.946;2022-08-19T16:46:18;16.70;;;5.50;;
65764;SDS011;52915;53.718;19.946;2022-08-19T16:51:24;16.30;;;5.20;;
65764;SDS011;52915;53.718;19.946;2022-08-19T16:56:29;7.60;;;4.70;;
65764;SDS011;52915;53.718;19.946;2022-08-19T17:01:33;12.60;;;5.80;;
65764;SDS011;52915;53.718;19.946;2022-08-19T17:06:38;24.40;;;10.00;;
65764;SDS011;52915;53.718;19.946;2022-08-19T17:11:42;16.40;;;7.40;;
65764;SDS011;52915;53.718;19.946;2022-08-19T17:16:53;19.00;;;6.00;;
65764;SDS011;52915;53.718;19.946;2022-08-19T17:21:57;18.80;;;6.00;;
65764;SDS011;52915;53.718;19.946;2022-08-19T17:27:01;13.40;;;7.40;;
65764;SDS011;52915;53.718;19.946;2022-08-19T17:32:11;14.00;;;8.50;;
65764;SDS011;52915;53.718;19.946;2022-08-19T17:37:16;19.10;;;8.20;;
65764;SDS011;52915;53.718;19.946;2022-08-19T17:42:20;18.50;;;6.50;;
65764;SDS011;52915;53.718;19.946;2022-08-19T17:47:26;25.50;;;8.10;;
65764;SDS011;52915;53.718;19.946;2022-08-19T17:52:31;15.20;;;7.20;;
65764;SDS011;52915;53.718;19.946;2022-08-19T17:57:37;9.90;;;6.00;;
65764;SDS011;52915;53.718;19.946;2022-08-19T18:02:54;18.50;;;8.00;;
65764;SDS011;52915;53.718;19.946;2022-08-19T18:08:03;14.00;;;6.50;;
65764;SDS011;52915;53.718;19.946;2022-08-19T18:13:14;13.30;;;6.10;;
65764;SDS011;52915;53.718;19.946;2022-08-19T18:18:20;10.40;;;6.70;;
65764;SDS011;52915;53.718;19.946;2022-08-19T18:23:24;9.30;;;5.60;;
65764;SDS011;52915;53.718;19.946;2022-08-19T18:28:47;14.90;;;6.00;;
65764;SDS011;52915;53.718;19.946;2022-08-19T18:33:54;23.70;;;6.20;;
65764;SDS011;52915;53.718;19.946;2022-08-19T18:38:58;8.70;;;5.70;;
65764;SDS011;52915;53.718;19.946;2022-08-19T18:44:23;13.70;;;5.90;;
65764;SDS011;52915;53.718;19.946;2022-08-19T18:49:46;13.40;;;5.90;;
65764;SDS011;52915;53.718;19.946;2022-08-19T18:54:53;16.40;;;5.20;;
65764;SDS011;52915;53.718;19.946;2022-08-19T18:59:57;10.10;;;6.30;;
65764;SDS011;52915;53.718;19.946;2022-08-19T19:05:02;10.70;;;6.40;;
65764;SDS011;52915;53.718;19.946;2022-08-19T19:10:09;19.50;;;6.60;;
65764;SDS011;52915;53.718;19.946;2022-08-19T19:15:14;13.40;;;6.30;;
65764;SDS011;52915;53.718;19.946;2022-08-19T19:20:18;16.50;;;5.80;;
65764;SDS011;52915;53.718;19.946;2022-08-19T19:25:23;16.20;;;6.00;;
65764;SDS011;52915;53.718;19.946;2022-08-19T19:30:48;19.40;;;6.00;;
65764;SDS011;52915;53.718;19.946;2022-08-19T19:35:52;12.30;;;6.20;;
65764;SDS011;52915;53.718;19.946;2022-08-19T19:40:56;12.70;;;5.40;;
65764;SDS011;52915;53.718;19.946;2022-08-19T19:46:01;13.90;;;5.10;;
65764;SDS011;52915;53.718;19.946;2022-08-19T19:51:09;8.00;;;5.40;;
65764;SDS011;52915;53.718;19.946;2022-08-19T19:56:14;8.20;;;5.40;;
65764;SDS011;52915;53.718;19.946;2022-08-19T20:01:20;8.60;;;4.80;;
65764;SDS011;52915;53.718;19.946;2022-08-19T20:06:29;14.10;;;5.40;;
65764;SDS011;52915;53.718;19.946;2022-08-19T20:11:47;18.60;;;5.80;;
65764;SDS011;52915;53.718;19.946;2022-08-19T20:16:57;16.70;;;6.40;;
65764;SDS011;52915;53.718;19.946;2022-08-19T20:22:04;10.30;;;4.60;;
65764;SDS011;52915;53.718;19.946;2022-08-19T20:27:09;17.00;;;6.60;;
65764;SDS011;52915;53.718;19.946;2022-08-19T20:32:13;20.50;;;7.20;;
65764;SDS011;52915;53.718;19.946;2022-08-19T20:37:18;24.20;;;7.40;;
65764;SDS011;52915;53.718;19.946;2022-08-19T20:42:22;28.20;;;12.20;;
65764;SDS011;52915;53.718;19.946;2022-08-19T20:47:26;15.80;;;7.90;;
65764;SDS011;52915;53.718;19.946;2022-08-19T20:52:33;9.00;;;5.40;;
65764;SDS011;52915;53.718;19.946;2022-08-19T20:57:38;9.50;;;5.10;;
65764;SDS011;52915;53.718;19.946;2022-08-19T21:02:45;7.10;;;4.60;;
65764;SDS011;52915;53.718;19.946;2022-08-19T21:07:49;11.40;;;4.70;;
65764;SDS011;52915;53.718;19.946;2022-08-19T21:12:54;10.60;;;4.80;;
65764;SDS011;52915;53.718;19.946;2022-08-19T21:17:58;12.50;;;5.20;;
65764;SDS011;52915;53.718;19.946;2022-08-19T21:23:08;11.40;;;5.50;;
65764;SDS011;52915;53.718;19.946;2022-08-19T21:28:16;10.70;;;4.10;;
65764;SDS011;52915;53.718;19.946;2022-08-19T21:33:38;15.00;;;4.80;;
65764;SDS011;52915;53.718;19.946;2022-08-19T21:38:43;16.20;;;3.90;;
65764;SDS011;52915;53.718;19.946;2022-08-19T21:43:48;17.80;;;4.80;;
65764;SDS011;52915;53.718;19.946;2022-08-19T21:48:52;15.80;;;4.90;;
65764;SDS011;52915;53.718;19.946;2022-08-19T21:53:57;10.80;;;4.80;;
65764;SDS011;52915;53.718;19.946;2022-08-19T21:59:01;10.40;;;3.80;;
65764;SDS011;52915;53.718;19.946;2022-08-19T22:04:06;19.30;;;4.70;;
65764;SDS011;52915;53.718;19.946;2022-08-19T22:09:10;14.30;;;4.60;;
65764;SDS011;52915;53.718;19.946;2022-08-19T22:14:14;12.90;;;4.80;;
65764;SDS011;52915;53.718;19.946;2022-08-19T22:19:18;14.40;;;4.70;;
65764;SDS011;52915;53.718;19.946;2022-08-19T22:24:30;14.00;;;4.60;;
65764;SDS011;52915;53.718;19.946;2022-08-19T22:29:34;17.60;;;4.90;;
65764;SDS011;52915;53.718;19.946;2022-08-19T22:34:39;18.40;;;4.40;;
65764;SDS011;52915;53.718;19.946;2022-08-19T22:39:44;10.80;;;4.50;;
65764;SDS011;52915;53.718;19.946;2022-08-19T22:44:48;15.80;;;5.10;;
65764;SDS011;52915;53.718;19.946;2022-08-19T22:49:53;20.70;;;4.70;;
65764;SDS011;52915;53.718;19.946;2022-08-19T22:55:05;16.00;;;4.80;;
65764;SDS011;52915;53.718;19.946;2022-08-19T23:00:10;12.90;;;5.00;;
65764;SDS011;52915;53.718;19.946;2022-08-19T23:05:16;9.50;;;4.80;;
65764;SDS011;52915;53.718;19.946;2022-08-19T23:10:25;17.20;;;5.00;;
65764;SDS011;52915;53.718;19.946;2022-08-19T23:15:31;11.00;;;4.90;;
65764;SDS011;52915;53.718;19.946;2022-08-19T23:20:38;8.40;;;4.50;;
65764;SDS011;52915;53.718;19.946;2022-08-19T23:25:45;13.20;;;5.00;;
65764;SDS011;52915;53.718;19.946;2022-08-19T23:30:52;9.30;;;4.50;;
65764;SDS011;52915;53.718;19.946;2022-08-19T23:36:06;11.30;;;6.70;;
65764;SDS011;52915;53.718;19.946;2022-08-19T23:41:16;17.40;;;5.80;;
65764;SDS011;52915;53.718;19.946;2022-08-19T23:46:21;15.30;;;4.90;;
65764;SDS011;52915;53.718;19.946;2022-08-19T23:51:30;14.20;;;5.40;;
65764;SDS011;52915;53.718;19.946;2022-08-19T23:56:34;14.70;;;6.20;;
